Time;durP1;ratioP1;P1;durP2;ratioP2;P2;SDS_P1;SDS_P2;PMS_P1;PMS_P2;Temp;Humidity;BMP_temperature;BMP_pressure;BME280_temperature;BME280_humidity;BME280_pressure;Samples;Min_cycle;Max_cycle;Signal;HPM_P1;HPM_P2
2022/10/08 00:02:21;;;;;;;10.55;2.25;;;13.30;99.90;;;;;;6182686;23;20007;-69
2022/10/08 00:04:47;;;;;;;11.95;2.80;;;13.30;99.90;;;;;;6182837;23;20001;-69
2022/10/08 00:07:12;;;;;;;5.68;2.65;;;13.30;99.90;;;;;;6183556;23;20001;-69
2022/10/08 00:09:38;;;;;;;15.30;3.60;;;13.30;99.90;;;;;;6183375;23;20012;-69
2022/10/08 00:12:03;;;;;;;11.27;2.22;;;13.30;99.90;;;;;;6183197;23;20009;-69
2022/10/08 00:14:29;;;;;;;7.95;2.60;;;13.50;99.90;;;;;;6183125;23;20007;-69
2022/10/08 00:16:54;;;;;;;10.77;2.70;;;13.40;99.90;;;;;;6181955;23;20013;-69
2022/10/08 00:19:20;;;;;;;5.65;2.58;;;13.40;99.90;;;;;;6183232;23;20001;-70
2022/10/08 00:21:46;;;;;;;8.45;3.58;;;13.40;99.90;;;;;;6182749;23;20028;-70
2022/10/08 00:24:14;;;;;;;9.13;2.67;;;13.50;99.90;;;;;;6183540;23;20005;-69
2022/10/08 00:26:40;;;;;;;7.75;2.95;;;13.50;99.90;;;;;;6182664;23;20458;-70
2022/10/08 00:29:07;;;;;;;7.15;2.22;;;13.60;99.90;;;;;;6183416;23;20001;-69
2022/10/08 00:31:35;;;;;;;6.35;2.35;;;13.50;99.90;;;;;;6182647;23;20068;-70
2022/10/08 00:34:04;;;;;;;10.73;3.33;;;14.40;99.90;;;;;;6182551;23;20017;-70
2022/10/08 00:36:32;;;;;;;9.77;2.30;;;13.50;99.90;;;;;;6183172;23;20076;-70
2022/10/08 00:38:59;;;;;;;8.77;2.97;;;13.60;99.90;;;;;;6182710;23;20449;-70
2022/10/08 00:41:29;;;;;;;9.50;3.60;;;13.50;99.90;;;;;;6183192;23;20005;-70
2022/10/08 00:43:58;;;;;;;10.15;3.03;;;13.70;99.90;;;;;;6182568;23;20067;-70
2022/10/08 00:46:32;;;;;;;5.80;2.10;;;13.70;99.90;;;;;;6182566;23;20009;-71
2022/10/08 00:49:01;;;;;;;10.40;2.95;;;13.60;99.90;;;;;;6182678;23;20055;-70
2022/10/08 00:51:27;;;;;;;11.50;2.80;;;13.50;99.90;;;;;;6182978;23;20020;-70
2022/10/08 00:53:53;;;;;;;17.17;2.70;;;13.60;99.90;;;;;;6182210;23;20038;-70
2022/10/08 00:56:20;;;;;;;10.85;2.72;;;13.60;99.90;;;;;;6182495;23;20011;-70
2022/10/08 00:58:48;;;;;;;12.77;3.33;;;13.60;99.90;;;;;;6181383;23;20011;-70
2022/10/08 01:01:14;;;;;;;16.35;3.13;;;13.70;99.90;;;;;;6178649;23;20431;-70
2022/10/08 01:03:40;;;;;;;10.98;3.03;;;13.50;99.90;;;;;;6180253;23;19997;-70
2022/10/08 01:06:28;;;;;;;11.15;2.80;;;13.60;99.90;;;;;;6180447;23;20075;-70
2022/10/08 01:09:02;;;;;;;13.50;3.70;;;13.60;99.90;;;;;;6180088;23;20075;-70
2022/10/08 01:11:37;;;;;;;9.50;2.90;;;13.50;99.90;;;;;;6180451;23;20004;-72
2022/10/08 01:14:15;;;;;;;9.88;3.78;;;13.40;99.90;;;;;;6179879;23;20076;-70
2022/10/08 01:16:59;;;;;;;9.20;3.22;;;13.40;99.90;;;;;;6182614;23;20005;-70
2022/10/08 01:20:05;;;;;;;18.45;3.75;;;13.40;99.90;;;;;;6182694;23;20005;-70
2022/10/08 01:22:52;;;;;;;8.15;4.13;;;13.30;99.90;;;;;;6182791;23;20032;-70
2022/10/08 01:25:39;;;;;;;11.73;3.35;;;13.20;99.90;;;;;;6181537;23;20060;-70
2022/10/08 01:28:19;;;;;;;7.78;2.92;;;13.20;99.90;;;;;;6181844;23;20013;-70
2022/10/08 01:30:51;;;;;;;11.27;3.35;;;13.20;99.90;;;;;;6182317;23;20005;-70
2022/10/08 01:33:24;;;;;;;10.68;3.05;;;13.20;99.90;;;;;;6182527;23;20011;-71
2022/10/08 01:35:56;;;;;;;9.65;2.40;;;13.10;99.90;;;;;;6182168;23;20687;-70
2022/10/08 01:38:24;;;;;;;6.75;2.08;;;13.10;99.90;;;;;;6182581;23;20001;-70
2022/10/08 01:40:53;;;;;;;13.60;2.75;;;13.00;99.90;;;;;;6182073;23;20009;-70
2022/10/08 01:43:22;;;;;;;7.13;2.50;;;13.10;99.90;;;;;;6181942;23;20051;-70
2022/10/08 01:45:56;;;;;;;5.95;3.05;;;13.10;99.90;;;;;;6182315;23;20023;-71
2022/10/08 01:48:31;;;;;;;7.60;2.50;;;13.00;99.90;;;;;;6182467;23;20076;-70
2022/10/08 01:51:23;;;;;;;11.80;4.00;;;13.00;99.90;;;;;;6182115;23;20005;-70
2022/10/08 01:53:50;;;;;;;14.52;3.78;;;13.00;99.90;;;;;;6182285;23;20507;-71
2022/10/08 01:56:21;;;;;;;10.73;4.28;;;13.00;99.90;;;;;;6182225;23;20001;-70
2022/10/08 01:58:53;;;;;;;9.25;4.78;;;13.00;99.90;;;;;;6181612;23;19997;-70
2022/10/08 02:01:36;;;;;;;9.98;4.95;;;12.90;99.90;;;;;;6182706;23;20035;-71
2022/10/08 02:06:53;;;;;;;11.07;5.45;;;13.00;99.90;;;;;;6182041;23;20012;-71
2022/10/08 02:09:19;;;;;;;14.02;7.88;;;12.90;99.90;;;;;;6182282;23;20005;-71
2022/10/08 02:11:44;;;;;;;14.60;7.68;;;12.80;99.90;;;;;;6181540;23;20012;-70
2022/10/08 02:14:10;;;;;;;12.52;7.95;;;13.00;99.90;;;;;;6182200;23;20005;-71
2022/10/08 02:16:41;;;;;;;11.15;8.02;;;12.90;99.90;;;;;;6182210;23;20011;-71
2022/10/08 02:19:11;;;;;;;16.17;8.68;;;12.80;99.90;;;;;;6182012;23;20048;-70
2022/10/08 02:21:39;;;;;;;9.55;8.02;;;12.80;99.90;;;;;;6182269;23;20060;-71
2022/10/08 02:24:17;;;;;;;12.35;7.95;;;12.70;99.90;;;;;;6180004;23;20013;-71
2022/10/08 02:26:50;;;;;;;17.38;8.63;;;12.80;99.90;;;;;;6181585;23;20522;-71
2022/10/08 02:29:20;;;;;;;13.60;7.90;;;12.80;99.90;;;;;;6180288;23;20009;-71
2022/10/08 02:32:08;;;;;;;7.80;6.68;;;12.70;99.90;;;;;;6182009;23;20004;-71
2022/10/08 02:35:24;;;;;;;15.27;7.65;;;12.70;99.90;;;;;;6180917;23;20023;-70
2022/10/08 02:38:00;;;;;;;11.93;7.30;;;12.80;99.90;;;;;;6173086;23;20100;-71
2022/10/08 02:40:29;;;;;;;12.23;6.72;;;12.70;99.90;;;;;;6181619;23;20005;-71
2022/10/08 02:43:00;;;;;;;11.23;7.40;;;12.70;99.90;;;;;;6181754;23;20366;-70
2022/10/08 02:45:35;;;;;;;19.23;7.60;;;12.70;99.90;;;;;;6182131;23;20059;-70
2022/10/08 02:48:07;;;;;;;18.73;8.15;;;12.70;99.90;;;;;;6181562;23;20012;-71
2022/10/08 02:50:35;;;;;;;14.13;8.63;;;12.70;99.90;;;;;;6181889;23;20032;-71
2022/10/08 02:53:02;;;;;;;11.77;8.98;;;12.60;99.90;;;;;;6181771;23;20005;-70
2022/10/08 02:55:52;;;;;;;18.88;8.82;;;13.30;99.90;;;;;;6181361;23;20008;-70
2022/10/08 02:58:18;;;;;;;11.48;8.00;;;12.60;99.90;;;;;;6181775;23;20009;-71
2022/10/08 03:00:53;;;;;;;14.27;8.20;;;12.60;99.90;;;;;;6181696;23;19997;-70
2022/10/08 03:03:29;;;;;;;13.82;6.95;;;12.70;99.90;;;;;;6181965;23;20029;-69
2022/10/08 03:05:55;;;;;;;13.90;8.20;;;12.70;99.90;;;;;;6181455;23;19997;-70
2022/10/08 03:08:21;;;;;;;13.50;7.13;;;12.60;99.90;;;;;;6181922;23;20136;-69
2022/10/08 03:10:47;;;;;;;16.58;8.30;;;12.50;99.90;;;;;;6181103;23;20052;-70
2022/10/08 03:13:13;;;;;;;11.32;7.28;;;12.60;99.90;;;;;;6181901;23;19997;-72
2022/10/08 03:15:40;;;;;;;12.43;7.38;;;12.60;99.90;;;;;;6181842;23;20032;-70
2022/10/08 03:18:09;;;;;;;13.25;7.47;;;12.60;99.90;;;;;;6182581;23;20087;-72
2022/10/08 03:20:41;;;;;;;12.07;7.15;;;12.60;99.90;;;;;;6182408;23;20911;-70
2022/10/08 03:23:07;;;;;;;8.55;6.80;;;12.50;99.90;;;;;;6183622;23;20338;-70
2022/10/08 03:25:33;;;;;;;12.75;6.40;;;12.30;99.90;;;;;;6183171;23;20068;-70
2022/10/08 03:27:58;;;;;;;8.52;6.13;;;12.50;99.90;;;;;;6183135;23;20013;-70
2022/10/08 03:30:24;;;;;;;10.82;6.25;;;12.50;99.90;;;;;;6182236;23;20071;-70
2022/10/08 03:32:49;;;;;;;13.43;6.35;;;12.50;99.90;;;;;;6183333;23;20005;-70
2022/10/08 03:35:15;;;;;;;10.95;6.13;;;12.40;99.90;;;;;;6183311;23;20013;-70
2022/10/08 03:37:40;;;;;;;11.77;5.57;;;12.30;99.90;;;;;;6183581;23;20063;-70
2022/10/08 03:40:08;;;;;;;13.27;5.90;;;12.30;99.90;;;;;;6183105;23;20051;-70
2022/10/08 03:42:33;;;;;;;14.05;6.03;;;12.30;99.90;;;;;;6183642;23;20008;-70
2022/10/08 03:45:00;;;;;;;12.05;5.45;;;12.20;99.90;;;;;;6183348;23;20024;-70
2022/10/08 03:47:26;;;;;;;7.55;5.10;;;12.20;99.90;;;;;;6183866;23;20035;-70
2022/10/08 03:49:51;;;;;;;10.48;5.63;;;12.20;99.90;;;;;;6183054;23;20304;-70
2022/10/08 03:52:17;;;;;;;10.65;6.05;;;12.20;99.90;;;;;;6182979;23;20005;-70
2022/10/08 03:54:42;;;;;;;11.65;5.78;;;12.20;99.90;;;;;;6182885;23;20444;-70
2022/10/08 03:57:08;;;;;;;8.65;5.20;;;12.10;99.90;;;;;;6183129;23;20009;-70
2022/10/08 03:59:33;;;;;;;12.82;6.22;;;12.10;99.90;;;;;;6183415;23;19997;-70
2022/10/08 04:01:59;;;;;;;15.80;5.70;;;12.10;99.90;;;;;;6182931;23;20004;-70
2022/10/08 04:04:24;;;;;;;10.00;5.32;;;12.20;99.90;;;;;;6183119;23;20016;-70
2022/10/08 04:06:50;;;;;;;10.10;5.00;;;12.10;99.90;;;;;;6182577;23;20304;-70
2022/10/08 04:09:15;;;;;;;10.15;6.82;;;12.00;99.90;;;;;;6181952;23;20063;-70
2022/10/08 04:11:41;;;;;;;10.93;6.85;;;12.00;99.90;;;;;;6183061;23;20056;-70
2022/10/08 04:14:06;;;;;;;17.05;5.97;;;12.00;99.90;;;;;;6181624;23;20062;-70
2022/10/08 04:16:32;;;;;;;15.25;6.18;;;12.00;99.90;;;;;;6182939;23;20013;-70
2022/10/08 04:18:57;;;;;;;12.13;5.78;;;11.90;99.90;;;;;;6182547;23;20308;-70
2022/10/08 04:21:23;;;;;;;9.27;5.43;;;11.90;99.90;;;;;;6182765;23;20485;-70
2022/10/08 04:23:49;;;;;;;12.63;6.40;;;11.90;99.90;;;;;;6180133;23;20012;-69
2022/10/08 04:26:15;;;;;;;10.27;6.00;;;11.70;99.90;;;;;;6182688;23;20068;-69
2022/10/08 04:28:43;;;;;;;15.93;6.70;;;11.80;99.90;;;;;;6182165;23;20001;-70
2022/10/08 04:31:17;;;;;;;14.52;7.00;;;11.80;99.90;;;;;;6182585;23;20133;-70
2022/10/08 04:33:45;;;;;;;17.05;6.32;;;11.90;99.90;;;;;;6183062;23;20378;-70
2022/10/08 04:36:13;;;;;;;13.27;7.72;;;11.90;99.90;;;;;;6183298;23;20072;-70
2022/10/08 04:38:41;;;;;;;14.27;7.65;;;11.90;99.90;;;;;;6181971;23;20335;-70
2022/10/08 04:41:08;;;;;;;12.57;7.55;;;11.90;99.90;;;;;;6182121;23;20351;-70
2022/10/08 04:43:35;;;;;;;13.68;7.22;;;12.10;99.90;;;;;;6182941;23;20004;-70
2022/10/08 04:46:02;;;;;;;11.57;7.57;;;12.10;99.90;;;;;;6182680;23;20001;-70
2022/10/08 04:48:28;;;;;;;14.93;6.70;;;12.10;99.90;;;;;;6182993;23;20507;-69
2022/10/08 04:51:01;;;;;;;12.45;7.18;;;12.10;99.90;;;;;;6182429;23;20025;-70
2022/10/08 04:53:27;;;;;;;14.20;7.07;;;12.20;99.90;;;;;;6183062;23;20446;-70
2022/10/08 04:55:53;;;;;;;8.60;7.20;;;12.00;99.90;;;;;;6182393;23;20667;-70
2022/10/08 04:58:20;;;;;;;13.02;7.93;;;12.30;99.90;;;;;;6182559;23;20067;-70
2022/10/08 05:00:45;;;;;;;16.27;7.32;;;12.20;99.90;;;;;;6180918;23;20431;-70
2022/10/08 05:03:11;;;;;;;14.73;7.93;;;12.20;99.90;;;;;;6182926;23;20004;-70
2022/10/08 05:05:41;;;;;;;16.63;7.25;;;12.20;99.90;;;;;;6181894;23;20077;-70
2022/10/08 05:08:07;;;;;;;16.15;7.63;;;12.30;99.90;;;;;;6182836;23;20012;-71
2022/10/08 05:10:32;;;;;;;12.52;7.00;;;12.30;99.90;;;;;;6183257;23;20005;-70
2022/10/08 05:12:58;;;;;;;12.65;7.68;;;12.30;99.90;;;;;;6182496;23;20001;-70
2022/10/08 05:15:24;;;;;;;14.93;8.45;;;12.30;99.90;;;;;;6183168;23;20001;-70
2022/10/08 05:17:49;;;;;;;17.80;8.32;;;12.30;99.90;;;;;;6182475;23;20004;-70
2022/10/08 05:20:15;;;;;;;15.98;7.43;;;12.40;99.90;;;;;;6181954;23;20428;-70
2022/10/08 05:22:40;;;;;;;14.95;8.88;;;12.40;99.90;;;;;;6182764;23;20032;-70
2022/10/08 05:25:06;;;;;;;12.35;7.63;;;12.40;99.90;;;;;;6181039;23;20028;-70
2022/10/08 05:27:32;;;;;;;13.77;7.60;;;12.30;99.90;;;;;;6182642;23;20500;-70
2022/10/08 05:29:57;;;;;;;15.23;8.73;;;12.40;99.90;;;;;;6182357;23;20012;-70
2022/10/08 05:32:23;;;;;;;12.02;7.90;;;12.40;99.90;;;;;;6182690;23;20323;-70
2022/10/08 05:34:48;;;;;;;14.00;9.13;;;12.40;99.90;;;;;;6181478;23;20343;-70
2022/10/08 05:37:14;;;;;;;15.55;8.25;;;12.30;99.90;;;;;;6182655;23;20526;-70
2022/10/08 05:39:39;;;;;;;10.77;8.60;;;12.40;99.90;;;;;;6182391;23;19997;-70
2022/10/08 05:42:05;;;;;;;11.73;8.57;;;12.40;99.90;;;;;;6182269;23;20007;-70
2022/10/08 05:44:30;;;;;;;13.55;8.38;;;12.40;99.90;;;;;;6182480;23;20492;-70
2022/10/08 05:46:56;;;;;;;14.45;8.70;;;12.40;99.90;;;;;;6182026;23;20426;-70
2022/10/08 05:49:22;;;;;;;18.02;9.35;;;12.40;99.90;;;;;;6181944;23;20008;-70
2022/10/08 05:51:49;;;;;;;14.90;10.80;;;12.40;99.90;;;;;;6182135;23;20005;-70
2022/10/08 05:54:16;;;;;;;10.65;8.88;;;12.40;99.90;;;;;;6182166;23;20016;-70
2022/10/08 05:56:42;;;;;;;11.77;8.38;;;12.40;99.90;;;;;;6182165;23;20063;-70
2022/10/08 05:59:23;;;;;;;14.98;10.02;;;12.30;99.90;;;;;;6182365;23;20129;-70
2022/10/08 06:01:50;;;;;;;15.63;10.18;;;12.40;99.90;;;;;;6181924;23;19997;-70
2022/10/08 06:04:17;;;;;;;19.70;9.63;;;12.40;99.90;;;;;;6181733;23;20016;-70
2022/10/08 06:06:43;;;;;;;15.95;10.00;;;12.40;99.90;;;;;;6182325;23;20415;-70
2022/10/08 06:09:17;;;;;;;18.88;11.02;;;12.40;99.90;;;;;;6182227;23;20012;-70
2022/10/08 06:11:43;;;;;;;18.02;9.95;;;12.40;99.90;;;;;;6182331;23;20005;-70
2022/10/08 06:14:13;;;;;;;24.75;11.70;;;12.40;99.90;;;;;;6182003;23;20001;-70
2022/10/08 06:16:39;;;;;;;14.57;10.38;;;12.40;99.90;;;;;;6182001;23;20005;-70
2022/10/08 06:19:07;;;;;;;12.65;8.90;;;12.30;99.90;;;;;;6181542;23;20009;-70
2022/10/08 06:21:34;;;;;;;19.98;11.55;;;12.40;99.90;;;;;;6182231;23;20056;-71
2022/10/08 06:24:05;;;;;;;18.25;10.70;;;12.30;99.90;;;;;;6181619;23;19997;-70
2022/10/08 06:26:34;;;;;;;17.35;11.25;;;12.20;99.90;;;;;;6180693;23;20009;-72
2022/10/08 06:28:59;;;;;;;25.40;13.18;;;12.20;99.90;;;;;;6181813;23;20335;-70
2022/10/08 06:31:25;;;;;;;18.75;11.98;;;12.10;99.90;;;;;;6182021;23;20013;-70
2022/10/08 06:33:55;;;;;;;21.80;12.25;;;12.00;99.90;;;;;;6181089;23;20004;-70
2022/10/08 06:36:24;;;;;;;16.77;12.32;;;11.90;99.90;;;;;;6182146;23;20387;-70
2022/10/08 06:38:57;;;;;;;24.75;12.32;;;11.80;99.90;;;;;;6182013;23;20633;-69
2022/10/08 06:41:23;;;;;;;20.60;12.38;;;11.90;99.90;;;;;;6182122;23;20001;-70
2022/10/08 06:43:49;;;;;;;21.58;12.88;;;11.80;99.90;;;;;;6181884;23;20009;-70
2022/10/08 06:46:15;;;;;;;22.83;14.73;;;11.80;99.90;;;;;;6181918;23;20542;-70
2022/10/08 06:48:40;;;;;;;19.35;12.15;;;11.70;99.90;;;;;;6181511;23;20028;-69
2022/10/08 06:51:13;;;;;;;19.23;12.38;;;12.20;99.90;;;;;;6181847;23;20000;-70
2022/10/08 06:53:40;;;;;;;19.17;13.32;;;11.70;99.90;;;;;;6183368;23;20090;-70
2022/10/08 06:56:09;;;;;;;23.10;13.30;;;11.60;99.90;;;;;;6183988;23;20008;-70
2022/10/08 06:58:38;;;;;;;16.67;11.90;;;11.60;99.90;;;;;;6182455;23;20466;-69
2022/10/08 07:01:06;;;;;;;20.65;13.15;;;11.60;99.90;;;;;;6183984;23;20012;-70
2022/10/08 07:03:32;;;;;;;18.85;12.52;;;11.60;99.90;;;;;;6183574;23;20000;-69
2022/10/08 07:06:07;;;;;;;21.23;14.63;;;11.50;99.90;;;;;;6183623;23;20338;-70
2022/10/08 07:08:34;;;;;;;22.27;13.07;;;11.60;99.90;;;;;;6184177;23;20032;-70
2022/10/08 07:11:08;;;;;;;21.48;12.95;;;11.60;99.90;;;;;;6183685;23;20052;-70
2022/10/08 07:13:35;;;;;;;20.60;12.70;;;11.60;99.90;;;;;;6182204;23;20051;-69
2022/10/08 07:16:05;;;;;;;17.65;12.00;;;11.60;99.90;;;;;;6183035;23;20001;-70
2022/10/08 07:18:32;;;;;;;18.92;12.00;;;11.70;99.90;;;;;;6183806;23;20013;-70
2022/10/08 07:20:58;;;;;;;15.80;11.60;;;11.70;99.90;;;;;;6181580;23;20008;-70
2022/10/08 07:23:24;;;;;;;22.35;11.57;;;11.70;99.90;;;;;;6184030;23;20202;-70
2022/10/08 07:26:09;;;;;;;22.48;11.75;;;12.40;99.90;;;;;;6183425;23;20005;-69
2022/10/08 07:28:37;;;;;;;19.48;11.38;;;11.80;99.90;;;;;;6183969;23;20104;-70
2022/10/08 07:31:05;;;;;;;24.10;11.50;;;11.80;99.90;;;;;;6182884;23;20517;-70
2022/10/08 07:33:31;;;;;;;18.15;11.60;;;12.00;99.90;;;;;;6183859;23;20001;-70
2022/10/08 07:36:10;;;;;;;11.90;9.57;;;11.80;99.90;;;;;;6183319;23;20033;-71
2022/10/08 07:38:37;;;;;;;19.48;9.82;;;11.80;99.90;;;;;;6183792;23;20001;-71
2022/10/08 07:41:03;;;;;;;17.42;10.05;;;11.90;99.90;;;;;;6183780;23;20001;-78
2022/10/08 07:43:28;;;;;;;18.95;10.73;;;12.00;99.90;;;;;;6183670;23;19997;-78
2022/10/08 07:45:54;;;;;;;14.63;8.38;;;12.00;99.90;;;;;;6182684;23;20001;-76
2022/10/08 07:48:20;;;;;;;19.77;8.98;;;12.00;99.90;;;;;;6183569;23;20025;-78
2022/10/08 07:50:45;;;;;;;16.00;7.20;;;12.00;99.90;;;;;;6184023;23;20009;-79
2022/10/08 07:53:11;;;;;;;11.93;6.97;;;12.30;99.90;;;;;;6184237;23;20055;-79
2022/10/08 07:55:37;;;;;;;10.95;6.95;;;12.30;99.90;;;;;;6181756;23;20007;-76
2022/10/08 07:58:03;;;;;;;12.35;6.78;;;12.20;99.90;;;;;;6183696;23;20076;-76
2022/10/08 08:00:29;;;;;;;11.18;5.57;;;12.20;99.90;;;;;;6182993;23;20060;-76
2022/10/08 08:02:54;;;;;;;12.07;5.90;;;12.20;99.90;;;;;;6183639;23;20438;-77
2022/10/08 08:05:20;;;;;;;9.60;4.85;;;12.20;99.90;;;;;;6181759;23;20112;-76
2022/10/08 08:07:45;;;;;;;8.27;3.28;;;12.30;99.90;;;;;;6183293;23;20083;-76
2022/10/08 08:10:11;;;;;;;9.43;3.05;;;12.40;99.90;;;;;;6183070;23;20001;-77
2022/10/08 08:12:36;;;;;;;9.90;3.13;;;12.40;99.90;;;;;;6183161;23;20005;-76
2022/10/08 08:15:02;;;;;;;9.13;2.25;;;12.50;99.90;;;;;;6182370;23;20032;-76
2022/10/08 08:17:28;;;;;;;7.07;2.70;;;12.50;99.90;;;;;;6182680;23;20012;-76
2022/10/08 08:19:53;;;;;;;9.07;1.95;;;12.60;99.90;;;;;;6183066;23;20001;-76
2022/10/08 08:22:19;;;;;;;6.88;2.00;;;12.60;99.90;;;;;;6183134;23;19997;-76
2022/10/08 08:24:45;;;;;;;13.27;1.70;;;12.60;99.90;;;;;;6182736;23;20032;-76
2022/10/08 08:27:10;;;;;;;9.00;2.03;;;12.80;99.90;;;;;;6181081;23;20011;-76
2022/10/08 08:29:36;;;;;;;7.90;2.65;;;12.70;99.90;;;;;;6182534;23;20064;-76
2022/10/08 08:32:01;;;;;;;9.15;1.13;;;15.10;99.90;;;;;;6183019;23;20064;-78
2022/10/08 08:34:27;;;;;;;7.15;1.40;;;12.70;99.90;;;;;;6181506;23;20009;-78
2022/10/08 08:36:53;;;;;;;7.45;1.20;;;12.80;99.90;;;;;;6183125;23;20005;-78
2022/10/08 08:39:22;;;;;;;10.77;1.67;;;12.90;99.90;;;;;;6183858;23;20005;-75
2022/10/08 08:42:03;;;;;;;5.00;1.65;;;13.00;99.90;;;;;;6183240;23;20001;-76
2022/10/08 08:44:36;;;;;;;5.70;0.77;;;13.00;99.90;;;;;;6182550;23;20012;-76
2022/10/08 08:47:17;;;;;;;3.53;0.93;;;13.00;99.90;;;;;;6183006;23;20012;-77
2022/10/08 08:49:53;;;;;;;8.13;2.00;;;13.00;99.90;;;;;;6183146;23;20394;-77
2022/10/08 08:52:23;;;;;;;11.65;1.25;;;13.10;99.90;;;;;;6182894;23;20008;-76
2022/10/08 08:54:52;;;;;;;4.93;1.27;;;13.10;99.90;;;;;;6182869;23;20005;-76
2022/10/08 08:57:41;;;;;;;8.85;1.55;;;13.20;99.90;;;;;;6182688;23;20005;-76
2022/10/08 09:00:16;;;;;;;6.30;1.08;;;13.20;99.90;;;;;;6182991;23;20451;-79
2022/10/08 09:03:02;;;;;;;11.88;1.15;;;13.20;99.90;;;;;;6182929;23;20024;-76
2022/10/08 09:05:31;;;;;;;10.00;1.17;;;13.30;99.90;;;;;;6182855;23;20005;-76
2022/10/08 09:08:19;;;;;;;7.68;0.88;;;13.30;99.90;;;;;;6181072;23;20554;-76
2022/10/08 09:10:51;;;;;;;6.55;1.52;;;13.40;99.90;;;;;;6182656;23;20001;-77
2022/10/08 09:13:23;;;;;;;8.07;1.40;;;13.50;99.90;;;;;;6182267;23;20009;-76
2022/10/08 09:15:50;;;;;;;7.43;1.00;;;13.50;99.90;;;;;;6182417;23;20009;-77
2022/10/08 09:18:15;;;;;;;3.60;0.70;;;13.50;99.90;;;;;;6182569;23;20016;-77
2022/10/08 09:20:42;;;;;;;6.25;0.73;;;13.70;99.90;;;;;;6181875;23;20072;-76
2022/10/08 09:23:14;;;;;;;6.38;0.90;;;13.70;99.90;;;;;;6182353;23;20005;-77
2022/10/08 09:25:41;;;;;;;6.10;1.23;;;13.80;99.90;;;;;;6184178;23;20001;-77
2022/10/08 09:28:07;;;;;;;7.10;0.98;;;13.80;99.90;;;;;;6182315;23;20453;-77
2022/10/08 09:30:37;;;;;;;3.50;0.77;;;13.90;99.90;;;;;;6182195;23;20001;-77
2022/10/08 09:33:15;;;;;;;4.65;0.98;;;13.90;99.90;;;;;;6181939;23;20005;-77
2022/10/08 09:35:46;;;;;;;5.28;1.02;;;14.00;99.90;;;;;;6182433;23;20013;-77
2022/10/08 09:38:25;;;;;;;9.45;0.93;;;14.20;99.90;;;;;;6182393;23;20005;-77
2022/10/08 09:41:17;;;;;;;4.18;0.90;;;14.40;99.90;;;;;;6181597;23;20000;-77
2022/10/08 09:43:44;;;;;;;10.60;1.55;;;14.60;99.90;;;;;;6169359;23;20012;-77
2022/10/08 09:46:31;;;;;;;6.65;0.85;;;14.70;99.90;;;;;;6182279;23;20047;-77
2022/10/08 09:49:30;;;;;;;6.85;1.45;;;14.90;99.90;;;;;;6181339;23;20063;-77
2022/10/08 09:51:59;;;;;;;8.60;0.95;;;15.00;99.90;;;;;;6182217;23;20005;-77
2022/10/08 09:54:33;;;;;;;4.35;1.45;;;14.90;99.90;;;;;;6182495;23;20125;-78
2022/10/08 09:56:59;;;;;;;;;;;15.00;99.90;;;;;;6181819;23;20008;-78
2022/10/08 09:59:30;;;;;;;7.15;1.17;;;15.00;99.90;;;;;;6181718;23;20352;-79
2022/10/08 10:01:56;;;;;;;6.40;1.02;;;15.10;99.90;;;;;;6181928;23;20012;-79
2022/10/08 10:04:30;;;;;;;6.13;0.88;;;15.30;99.90;;;;;;6182433;23;20033;-78
2022/10/08 10:06:56;;;;;;;5.85;1.27;;;15.30;99.90;;;;;;6183206;23;20032;-78
2022/10/08 10:09:39;;;;;;;3.80;0.77;;;15.30;99.90;;;;;;6181991;23;20100;-79
2022/10/08 10:12:10;;;;;;;5.28;1.45;;;15.10;99.90;;;;;;6182256;23;19997;-79
2022/10/08 10:14:49;;;;;;;5.85;0.90;;;15.00;99.90;;;;;;6183199;23;20416;-76
2022/10/08 10:17:18;;;;;;;8.68;1.13;;;14.80;99.90;;;;;;6182237;23;20051;-77
2022/10/08 10:19:54;;;;;;;2.53;0.68;;;14.70;99.90;;;;;;6182158;23;20001;-78
2022/10/08 10:22:40;;;;;;;10.15;0.82;;;14.50;99.90;;;;;;6182863;23;20001;-78
2022/10/08 10:25:15;;;;;;;3.97;0.93;;;14.50;99.90;;;;;;6182779;23;20005;-78
2022/10/08 10:27:46;;;;;;;3.13;0.70;;;14.60;99.90;;;;;;6181234;23;20447;-77
2022/10/08 10:30:17;;;;;;;6.68;1.30;;;14.70;99.90;;;;;;6181971;23;20012;-77
2022/10/08 10:32:51;;;;;;;5.28;0.73;;;14.90;99.90;;;;;;6183404;23;20005;-77
2022/10/08 10:35:40;;;;;;;5.38;1.35;;;15.00;99.90;;;;;;6183328;23;20021;-76
2022/10/08 10:38:24;;;;;;;4.43;0.80;;;15.10;99.90;;;;;;6183333;23;20506;-77
2022/10/08 10:41:18;;;;;;;5.93;1.00;;;15.00;99.90;;;;;;6179865;23;20498;-76
2022/10/08 10:43:47;;;;;;;;;;;14.90;99.90;;;;;;6168560;23;20059;-77
2022/10/08 10:46:33;;;;;;;4.88;1.02;;;14.50;99.90;;;;;;6181651;23;19908;-76
2022/10/08 10:48:59;;;;;;;4.75;1.00;;;14.50;99.90;;;;;;6182814;23;20076;-77
2022/10/08 10:51:59;;;;;;;8.38;1.13;;;14.40;99.90;;;;;;6183081;23;20001;-76
2022/10/08 10:54:33;;;;;;;4.57;1.40;;;14.10;99.90;;;;;;6182476;23;20001;-77
2022/10/08 10:57:28;;;;;;;6.80;1.90;;;13.80;99.90;;;;;;6182840;23;20001;-77
2022/10/08 11:00:03;;;;;;;;;;;13.70;99.90;;;;;;6181737;23;20024;-77
2022/10/08 11:02:47;;;;;;;5.22;1.35;;;13.50;99.90;;;;;;6179796;23;20378;-77
2022/10/08 11:05:24;;;;;;;6.43;1.02;;;13.50;99.90;;;;;;6181712;23;20478;-77
2022/10/08 11:08:14;;;;;;;6.75;1.23;;;14.70;99.90;;;;;;6180484;23;20090;-77
2022/10/08 11:11:05;;;;;;;5.78;1.23;;;13.40;99.90;;;;;;6181655;23;20001;-77
2022/10/08 11:13:35;;;;;;;4.45;1.15;;;13.40;99.90;;;;;;6181299;23;20445;-77
2022/10/08 11:16:36;;;;;;;5.38;1.45;;;13.70;99.90;;;;;;6181168;23;20001;-77
2022/10/08 11:19:04;;;;;;;11.70;1.42;;;13.50;99.90;;;;;;6165696;23;20009;-77
2022/10/08 11:21:30;;;;;;;10.73;2.72;;;13.50;99.90;;;;;;6181522;23;20008;-77
2022/10/08 11:24:17;;;;;;;6.55;1.67;;;13.50;99.90;;;;;;6180666;23;20001;-77
2022/10/08 11:27:01;;;;;;;4.82;1.10;;;13.60;99.90;;;;;;6181545;23;20027;-77
2022/10/08 11:29:36;;;;;;;;;;;13.70;99.90;;;;;;6182209;23;20423;-77
2022/10/08 11:32:02;;;;;;;8.73;1.48;;;13.90;99.90;;;;;;6181123;23;19900;-77
2022/10/08 11:34:34;;;;;;;5.65;1.30;;;14.10;99.90;;;;;;6181514;23;20451;-77
2022/10/08 11:37:18;;;;;;;5.47;1.38;;;14.30;99.90;;;;;;6179331;23;20431;-76
2022/10/08 11:39:56;;;;;;;5.40;1.00;;;14.60;99.90;;;;;;6183642;23;20008;-78
2022/10/08 11:42:36;;;;;;;3.25;0.90;;;14.80;99.90;;;;;;6183841;23;20327;-77
2022/10/08 11:45:24;;;;;;;8.98;1.70;;;14.90;99.90;;;;;;6183867;23;20009;-77
2022/10/08 11:47:53;;;;;;;4.32;0.90;;;14.80;99.90;;;;;;6183459;23;20032;-76
2022/10/08 11:50:28;;;;;;;7.00;0.85;;;14.90;99.90;;;;;;6183382;23;20103;-77
2022/10/08 11:52:59;;;;;;;5.05;0.88;;;14.80;99.90;;;;;;6183146;23;20029;-77
2022/10/08 11:55:29;;;;;;;4.93;0.70;;;14.70;99.90;;;;;;6183829;23;20016;-77
2022/10/08 11:57:58;;;;;;;8.60;1.02;;;15.30;99.90;;;;;;6183436;23;20554;-77
2022/10/08 12:00:43;;;;;;;4.70;1.17;;;14.60;99.90;;;;;;6183505;23;20128;-77
2022/10/08 12:03:26;;;;;;;5.43;1.23;;;14.70;99.90;;;;;;6183185;23;20044;-77
2022/10/08 12:05:54;;;;;;;7.57;0.75;;;14.70;99.90;;;;;;6181768;23;20004;-76
2022/10/08 12:08:46;;;;;;;7.82;0.90;;;14.70;99.90;;;;;;6182761;23;20422;-75
2022/10/08 12:11:30;;;;;;;3.30;1.13;;;14.40;99.90;;;;;;6182411;23;20147;-76
2022/10/08 12:14:11;;;;;;;4.43;1.00;;;14.90;99.90;;;;;;6182764;23;20008;-76
2022/10/08 12:16:54;;;;;;;10.18;0.85;;;15.00;99.90;;;;;;6182638;23;20080;-77
2022/10/08 12:19:35;;;;;;;5.72;0.90;;;15.90;99.90;;;;;;6181053;23;20008;-76
2022/10/08 12:22:13;;;;;;;9.20;1.52;;;15.40;99.90;;;;;;6181747;23;19998;-75
2022/10/08 12:24:39;;;;;;;10.57;1.13;;;15.60;99.90;;;;;;6182757;23;20011;-76
2022/10/08 12:27:20;;;;;;;3.28;0.80;;;15.50;99.90;;;;;;6181546;23;20001;-76
2022/10/08 12:30:07;;;;;;;5.18;0.70;;;15.80;99.90;;;;;;6182456;23;20008;-76
2022/10/08 12:32:52;;;;;;;3.85;1.00;;;15.80;99.90;;;;;;6182976;23;20499;-76
2022/10/08 12:35:22;;;;;;;8.27;1.10;;;15.90;99.90;;;;;;6182469;23;20012;-75
2022/10/08 12:38:12;;;;;;;5.28;1.17;;;15.80;99.90;;;;;;6183042;23;20009;-75
2022/10/08 12:41:07;;;;;;;4.78;1.25;;;15.80;99.90;;;;;;6182704;23;19998;-76
2022/10/08 12:43:51;;;;;;;5.55;1.00;;;15.80;99.90;;;;;;6167158;23;20014;-77
2022/10/08 12:46:39;;;;;;;7.25;1.00;;;15.70;99.90;;;;;;6182951;23;20008;-77
2022/10/08 12:49:28;;;;;;;8.48;1.20;;;15.70;99.90;;;;;;6182876;23;20033;-77
2022/10/08 12:52:12;;;;;;;7.93;1.95;;;15.70;99.90;;;;;;6182606;23;19997;-78
2022/10/08 12:54:54;;;;;;;10.48;1.00;;;15.70;99.90;;;;;;6182992;23;20012;-77
2022/10/08 12:57:35;;;;;;;8.77;1.88;;;15.60;99.90;;;;;;6182850;23;20017;-77
2022/10/08 13:00:10;;;;;;;6.28;0.93;;;15.60;99.90;;;;;;6182421;23;20336;-76
2022/10/08 13:02:40;;;;;;;4.30;1.00;;;15.40;99.90;;;;;;6182460;23;20016;-76
2022/10/08 13:05:28;;;;;;;6.03;0.82;;;15.20;99.90;;;;;;6181866;23;19997;-76
2022/10/08 13:07:54;;;;;;;9.70;1.77;;;15.30;99.90;;;;;;6182365;23;20005;-76